sensor_id;sensor_type;location;lat;lon;timestamp;pressure;altitude;pressure_sealevel;temperature;humidity
44148;BME280;29810;55.848;37.368;2023-04-22T00:00:58;98667.50;;;8.31;47.89
44148;BME280;29810;55.848;37.368;2023-04-22T00:04:01;98672.41;;;8.15;48.50
44148;BME280;29810;55.848;37.368;2023-04-22T00:07:02;98671.16;;;8.02;49.21
44148;BME280;29810;55.848;37.368;2023-04-22T00:10:03;98674.81;;;7.96;48.82
44148;BME280;29810;55.848;37.368;2023-04-22T00:13:05;98668.00;;;7.93;48.80
44148;BME280;29810;55.848;37.368;2023-04-22T00:16:07;98673.78;;;7.75;50.23
44148;BME280;29810;55.848;37.368;2023-04-22T00:19:08;98678.78;;;7.81;48.97
44148;BME280;29810;55.848;37.368;2023-04-22T00:22:09;98677.31;;;7.74;49.64
44148;BME280;29810;55.848;37.368;2023-04-22T00:25:10;98679.34;;;7.64;50.21
44148;BME280;29810;55.848;37.368;2023-04-22T00:28:12;98682.13;;;7.58;50.63
44148;BME280;29810;55.848;37.368;2023-04-22T00:31:13;98683.19;;;7.52;50.95
44148;BME280;29810;55.848;37.368;2023-04-22T00:34:15;98686.03;;;7.44;51.27
44148;BME280;29810;55.848;37.368;2023-04-22T00:37:17;98691.22;;;7.44;50.95
44148;BME280;29810;55.848;37.368;2023-04-22T00:40:19;98688.88;;;7.37;51.33
44148;BME280;29810;55.848;37.368;2023-04-22T00:43:20;98691.34;;;7.41;51.12
44148;BME280;29810;55.848;37.368;2023-04-22T00:46:22;98673.13;;;7.43;50.74
44148;BME280;29810;55.848;37.368;2023-04-22T00:49:24;98675.03;;;7.38;50.88
44148;BME280;29810;55.848;37.368;2023-04-22T00:52:27;98670.19;;;7.27;51.66
44148;BME280;29810;55.848;37.368;2023-04-22T00:55:28;98671.97;;;7.25;51.76
44148;BME280;29810;55.848;37.368;2023-04-22T00:58:30;98674.75;;;7.19;52.31
44148;BME280;29810;55.848;37.368;2023-04-22T01:01:31;98680.63;;;7.25;50.50
44148;BME280;29810;55.848;37.368;2023-04-22T01:04:33;98683.50;;;7.16;52.39
44148;BME280;29810;55.848;37.368;2023-04-22T01:07:34;98669.63;;;7.17;51.71
44148;BME280;29810;55.848;37.368;2023-04-22T01:10:36;98676.91;;;7.06;52.59
44148;BME280;29810;55.848;37.368;2023-04-22T01:13:38;98674.41;;;7.03;52.85
44148;BME280;29810;55.848;37.368;2023-04-22T01:16:40;98665.84;;;7.01;52.33
44148;BME280;29810;55.848;37.368;2023-04-22T01:19:43;98665.06;;;6.97;52.40
44148;BME280;29810;55.848;37.368;2023-04-22T01:22:45;98672.09;;;6.93;53.19
44148;BME280;29810;55.848;37.368;2023-04-22T01:25:46;98664.25;;;6.96;52.41
44148;BME280;29810;55.848;37.368;2023-04-22T01:28:48;98663.41;;;6.94;51.83
44148;BME280;29810;55.848;37.368;2023-04-22T01:31:49;98664.59;;;6.84;52.58
44148;BME280;29810;55.848;37.368;2023-04-22T01:34:51;98660.63;;;6.72;54.04
44148;BME280;29810;55.848;37.368;2023-04-22T01:37:52;98655.47;;;6.72;53.85
44148;BME280;29810;55.848;37.368;2023-04-22T01:40:54;98653.81;;;6.70;53.32
44148;BME280;29810;55.848;37.368;2023-04-22T01:43:56;98659.81;;;6.72;52.61
44148;BME280;29810;55.848;37.368;2023-04-22T01:46:58;98661.84;;;6.60;54.72
44148;BME280;29810;55.848;37.368;2023-04-22T01:49:59;98668.03;;;6.56;54.31
44148;BME280;29810;55.848;37.368;2023-04-22T01:53:00;98667.47;;;6.45;55.43
44148;BME280;29810;55.848;37.368;2023-04-22T01:56:01;98665.81;;;6.42;55.36
44148;BME280;29810;55.848;37.368;2023-04-22T01:59:03;98665.25;;;6.31;56.09
44148;BME280;29810;55.848;37.368;2023-04-22T02:02:05;98668.78;;;6.30;55.93
44148;BME280;29810;55.848;37.368;2023-04-22T02:05:07;98661.03;;;6.28;56.01
44148;BME280;29810;55.848;37.368;2023-04-22T02:08:08;98663.72;;;6.25;56.38
44148;BME280;29810;55.848;37.368;2023-04-22T02:11:10;98668.00;;;6.26;55.71
44148;BME280;29810;55.848;37.368;2023-04-22T02:14:11;98671.56;;;6.22;56.50
44148;BME280;29810;55.848;37.368;2023-04-22T02:17:12;98669.78;;;6.24;56.15
44148;BME280;29810;55.848;37.368;2023-04-22T02:20:14;98665.38;;;6.28;55.80
44148;BME280;29810;55.848;37.368;2023-04-22T02:23:15;98663.50;;;6.33;55.10
44148;BME280;29810;55.848;37.368;2023-04-22T02:26:16;98660.03;;;6.34;55.87
44148;BME280;29810;55.848;37.368;2023-04-22T02:29:18;98656.41;;;6.40;54.86
44148;BME280;29810;55.848;37.368;2023-04-22T02:32:21;98655.41;;;6.44;55.16
44148;BME280;29810;55.848;37.368;2023-04-22T02:35:22;98660.41;;;6.50;55.03
44148;BME280;29810;55.848;37.368;2023-04-22T02:38:25;98663.62;;;6.58;54.74
44148;BME280;29810;55.848;37.368;2023-04-22T02:41:26;98660.16;;;6.59;54.98
44148;BME280;29810;55.848;37.368;2023-04-22T02:44:27;98660.88;;;6.65;54.37
44148;BME280;29810;55.848;37.368;2023-04-22T02:47:28;98670.34;;;6.66;55.12
44148;BME280;29810;55.848;37.368;2023-04-22T02:50:30;98665.09;;;6.67;55.43
44148;BME280;29810;55.848;37.368;2023-04-22T02:53:31;98663.19;;;6.74;54.96
44148;BME280;29810;55.848;37.368;2023-04-22T02:56:33;98664.66;;;6.83;54.17
44148;BME280;29810;55.848;37.368;2023-04-22T02:59:34;98661.00;;;6.88;54.66
44148;BME280;29810;55.848;37.368;2023-04-22T03:02:37;98661.81;;;6.90;54.69
44148;BME280;29810;55.848;37.368;2023-04-22T03:05:39;98673.63;;;6.99;53.94
44148;BME280;29810;55.848;37.368;2023-04-22T03:08:41;98672.91;;;6.95;54.27
44148;BME280;29810;55.848;37.368;2023-04-22T03:11:42;98667.91;;;6.89;55.10
44148;BME280;29810;55.848;37.368;2023-04-22T03:14:44;98673.19;;;6.86;55.36
44148;BME280;29810;55.848;37.368;2023-04-22T03:17:45;98673.03;;;6.91;54.55
44148;BME280;29810;55.848;37.368;2023-04-22T03:20:48;98670.62;;;6.85;55.18
44148;BME280;29810;55.848;37.368;2023-04-22T03:23:49;98676.72;;;6.84;55.43
44148;BME280;29810;55.848;37.368;2023-04-22T03:26:51;98676.28;;;6.97;54.30
44148;BME280;29810;55.848;37.368;2023-04-22T03:29:52;98678.75;;;7.02;55.15
44148;BME280;29810;55.848;37.368;2023-04-22T03:32:56;98681.84;;;7.13;54.53
44148;BME280;29810;55.848;37.368;2023-04-22T03:35:58;98679.91;;;7.20;54.76
44148;BME280;29810;55.848;37.368;2023-04-22T03:38:59;98660.75;;;7.24;53.37
44148;BME280;29810;55.848;37.368;2023-04-22T03:42:01;98691.88;;;7.51;53.61
44148;BME280;29810;55.848;37.368;2023-04-22T03:45:03;98689.47;;;7.97;53.25
44148;BME280;29810;55.848;37.368;2023-04-22T03:48:07;98677.28;;;10.81;47.61
44148;BME280;29810;55.848;37.368;2023-04-22T03:51:09;98664.88;;;14.01;40.52
44148;BME280;29810;55.848;37.368;2023-04-22T03:54:11;98660.28;;;15.99;35.83
44148;BME280;29810;55.848;37.368;2023-04-22T03:57:13;98670.16;;;16.34;34.75
44148;BME280;29810;55.848;37.368;2023-04-22T04:00:15;98664.16;;;17.43;32.96
44148;BME280;29810;55.848;37.368;2023-04-22T04:03:18;98659.31;;;19.10;31.04
44148;BME280;29810;55.848;37.368;2023-04-22T04:06:21;98651.50;;;20.47;28.61
44148;BME280;29810;55.848;37.368;2023-04-22T04:09:22;98658.53;;;21.47;27.21
44148;BME280;29810;55.848;37.368;2023-04-22T04:12:23;98655.38;;;22.21;25.34
44148;BME280;29810;55.848;37.368;2023-04-22T04:15:25;98657.66;;;22.53;23.76
44148;BME280;29810;55.848;37.368;2023-04-22T04:18:26;98659.84;;;22.86;25.30
44148;BME280;29810;55.848;37.368;2023-04-22T04:21:30;98652.72;;;23.32;25.18
44148;BME280;29810;55.848;37.368;2023-04-22T04:24:33;98650.75;;;24.23;22.43
44148;BME280;29810;55.848;37.368;2023-04-22T04:27:38;98653.31;;;24.67;23.46
44148;BME280;29810;55.848;37.368;2023-04-22T04:30:42;98641.97;;;25.24;22.39
44148;BME280;29810;55.848;37.368;2023-04-22T04:33:44;98651.53;;;25.60;20.29
44148;BME280;29810;55.848;37.368;2023-04-22T04:36:46;98650.50;;;25.20;22.33
44148;BME280;29810;55.848;37.368;2023-04-22T04:39:49;98649.50;;;26.20;21.55
44148;BME280;29810;55.848;37.368;2023-04-22T04:42:50;98654.22;;;25.43;20.79
44148;BME280;29810;55.848;37.368;2023-04-22T04:45:56;98646.00;;;26.11;21.53
44148;BME280;29810;55.848;37.368;2023-04-22T04:48:58;98644.03;;;27.24;18.70
44148;BME280;29810;55.848;37.368;2023-04-22T04:52:01;98640.34;;;27.25;19.13
44148;BME280;29810;55.848;37.368;2023-04-22T04:55:02;98646.16;;;27.28;18.63
44148;BME280;29810;55.848;37.368;2023-04-22T04:58:04;98642.59;;;27.36;18.99
44148;BME280;29810;55.848;37.368;2023-04-22T05:01:06;98645.03;;;28.52;18.16
44148;BME280;29810;55.848;37.368;2023-04-22T05:04:07;98644.06;;;28.00;17.73
44148;BME280;29810;55.848;37.368;2023-04-22T05:07:10;98643.66;;;28.41;18.55
44148;BME280;29810;55.848;37.368;2023-04-22T05:10:13;98655.94;;;28.21;17.62
44148;BME280;29810;55.848;37.368;2023-04-22T05:13:14;98643.75;;;29.58;16.92
44148;BME280;29810;55.848;37.368;2023-04-22T05:16:16;98639.78;;;29.32;17.07
44148;BME280;29810;55.848;37.368;2023-04-22T05:19:17;98654.13;;;26.34;18.38
44148;BME280;29810;55.848;37.368;2023-04-22T05:22:20;98681.59;;;21.76;23.51
44148;BME280;29810;55.848;37.368;2023-04-22T05:25:21;98683.56;;;19.15;28.45
44148;BME280;29810;55.848;37.368;2023-04-22T05:28:24;98679.81;;;20.04;27.28
44148;BME280;29810;55.848;37.368;2023-04-22T05:31:26;98661.69;;;23.31;23.81
44148;BME280;29810;55.848;37.368;2023-04-22T05:34:27;98655.12;;;25.18;21.26
44148;BME280;29810;55.848;37.368;2023-04-22T05:37:28;98659.84;;;26.15;19.60
44148;BME280;29810;55.848;37.368;2023-04-22T05:40:30;98647.72;;;26.52;19.75
44148;BME280;29810;55.848;37.368;2023-04-22T05:43:32;98652.56;;;26.96;18.83
44148;BME280;29810;55.848;37.368;2023-04-22T05:46:35;98648.66;;;26.19;19.63
44148;BME280;29810;55.848;37.368;2023-04-22T05:49:36;98660.19;;;25.70;20.26
44148;BME280;29810;55.848;37.368;2023-04-22T05:52:39;98664.22;;;25.83;19.62
44148;BME280;29810;55.848;37.368;2023-04-22T05:55:41;98653.00;;;25.29;20.12
44148;BME280;29810;55.848;37.368;2023-04-22T05:58:43;98666.34;;;24.70;21.03
44148;BME280;29810;55.848;37.368;2023-04-22T06:01:45;98659.41;;;24.17;20.97
44148;BME280;29810;55.848;37.368;2023-04-22T06:04:47;98664.84;;;24.15;20.91
44148;BME280;29810;55.848;37.368;2023-04-22T06:07:48;98663.03;;;23.71;20.85
44148;BME280;29810;55.848;37.368;2023-04-22T06:10:50;98680.19;;;20.51;24.23
44148;BME280;29810;55.848;37.368;2023-04-22T06:13:51;98680.75;;;17.92;27.58
44148;BME280;29810;55.848;37.368;2023-04-22T06:16:53;98696.88;;;16.41;30.08
44148;BME280;29810;55.848;37.368;2023-04-22T06:19:54;98719.94;;;15.16;31.87
44148;BME280;29810;55.848;37.368;2023-04-22T06:22:55;98706.47;;;14.50;32.87
44148;BME280;29810;55.848;37.368;2023-04-22T06:25:56;98708.19;;;14.51;33.42
44148;BME280;29810;55.848;37.368;2023-04-22T06:29:02;98695.06;;;14.80;32.99
44148;BME280;29810;55.848;37.368;2023-04-22T06:32:05;98709.31;;;14.76;33.00
44148;BME280;29810;55.848;37.368;2023-04-22T06:35:07;98703.03;;;14.35;33.74
44148;BME280;29810;55.848;37.368;2023-04-22T06:38:09;98710.03;;;13.45;35.22
44148;BME280;29810;55.848;37.368;2023-04-22T06:41:12;98709.41;;;13.08;36.19
44148;BME280;29810;55.848;37.368;2023-04-22T06:44:14;98718.53;;;12.85;37.08
44148;BME280;29810;55.848;37.368;2023-04-22T06:47:16;98708.16;;;13.15;35.76
44148;BME280;29810;55.848;37.368;2023-04-22T06:50:17;98688.56;;;13.22;35.72
44148;BME280;29810;55.848;37.368;2023-04-22T06:53:19;98709.53;;;13.38;35.65
44148;BME280;29810;55.848;37.368;2023-04-22T06:56:20;98709.41;;;13.08;36.69
44148;BME280;29810;55.848;37.368;2023-04-22T06:59:22;98726.28;;;12.70;37.52
44148;BME280;29810;55.848;37.368;2023-04-22T07:02:23;98693.91;;;12.89;36.95
44148;BME280;29810;55.848;37.368;2023-04-22T07:05:24;98711.69;;;13.30;36.48
44148;BME280;29810;55.848;37.368;2023-04-22T07:08:26;98706.53;;;13.29;36.46
44148;BME280;29810;55.848;37.368;2023-04-22T07:11:27;98692.84;;;13.55;36.37
44148;BME280;29810;55.848;37.368;2023-04-22T07:14:31;98692.31;;;13.65;36.10
44148;BME280;29810;55.848;37.368;2023-04-22T07:17:33;98688.66;;;13.98;35.41
44148;BME280;29810;55.848;37.368;2023-04-22T07:20:34;98688.22;;;14.20;34.78
44148;BME280;29810;55.848;37.368;2023-04-22T07:23:36;98700.09;;;14.40;34.17
44148;BME280;29810;55.848;37.368;2023-04-22T07:26:40;98709.44;;;13.40;35.46
44148;BME280;29810;55.848;37.368;2023-04-22T07:29:43;98704.91;;;13.88;34.89
44148;BME280;29810;55.848;37.368;2023-04-22T07:32:44;98693.31;;;13.93;34.04
44148;BME280;29810;55.848;37.368;2023-04-22T07:35:46;98696.34;;;14.15;34.22
44148;BME280;29810;55.848;37.368;2023-04-22T07:38:47;98690.94;;;14.62;33.47
44148;BME280;29810;55.848;37.368;2023-04-22T07:41:49;98689.22;;;14.89;32.99
44148;BME280;29810;55.848;37.368;2023-04-22T07:44:51;98692.81;;;14.88;32.36
44148;BME280;29810;55.848;37.368;2023-04-22T07:47:52;98687.66;;;14.58;32.58
44148;BME280;29810;55.848;37.368;2023-04-22T07:50:53;98694.97;;;14.38;34.04
44148;BME280;29810;55.848;37.368;2023-04-22T07:53:55;98707.03;;;14.12;34.61
44148;BME280;29810;55.848;37.368;2023-04-22T07:56:56;98711.13;;;14.02;35.21
44148;BME280;29810;55.848;37.368;2023-04-22T07:59:59;98696.97;;;13.90;35.35
44148;BME280;29810;55.848;37.368;2023-04-22T08:03:02;98694.44;;;13.88;35.32
44148;BME280;29810;55.848;37.368;2023-04-22T08:06:03;98711.34;;;13.68;35.63
44148;BME280;29810;55.848;37.368;2023-04-22T08:09:05;98712.16;;;13.69;35.32
44148;BME280;29810;55.848;37.368;2023-04-22T08:12:06;98696.97;;;13.90;34.51
44148;BME280;29810;55.848;37.368;2023-04-22T08:15:07;98698.59;;;14.21;33.43
44148;BME280;29810;55.848;37.368;2023-04-22T08:18:09;98698.22;;;14.13;33.30
44148;BME280;29810;55.848;37.368;2023-04-22T08:21:10;98693.75;;;14.30;33.33
44148;BME280;29810;55.848;37.368;2023-04-22T08:24:12;98701.44;;;14.47;32.50
44148;BME280;29810;55.848;37.368;2023-04-22T08:27:13;98695.25;;;14.48;32.74
44148;BME280;29810;55.848;37.368;2023-04-22T08:30:15;98696.44;;;14.28;33.12
44148;BME280;29810;55.848;37.368;2023-04-22T08:33:16;98693.00;;;14.42;32.02
44148;BME280;29810;55.848;37.368;2023-04-22T08:36:17;98675.87;;;14.22;31.61
44148;BME280;29810;55.848;37.368;2023-04-22T08:39:21;98674.44;;;14.74;31.25
44148;BME280;29810;55.848;37.368;2023-04-22T08:42:22;98688.28;;;15.32;30.48
44148;BME280;29810;55.848;37.368;2023-04-22T08:45:24;98698.97;;;15.56;29.53
44148;BME280;29810;55.848;37.368;2023-04-22T08:48:26;98672.56;;;15.45;29.34
44148;BME280;29810;55.848;37.368;2023-04-22T08:51:27;98687.97;;;15.64;28.91
44148;BME280;29810;55.848;37.368;2023-04-22T08:54:29;98692.22;;;15.39;29.30
44148;BME280;29810;55.848;37.368;2023-04-22T08:57:30;98689.44;;;14.86;30.03
44148;BME280;29810;55.848;37.368;2023-04-22T09:00:31;98684.75;;;14.63;30.44
44148;BME280;29810;55.848;37.368;2023-04-22T09:03:34;98708.62;;;14.29;30.98
44148;BME280;29810;55.848;37.368;2023-04-22T09:06:37;98684.38;;;14.40;31.06
44148;BME280;29810;55.848;37.368;2023-04-22T09:09:38;98688.91;;;14.67;30.34
44148;BME280;29810;55.848;37.368;2023-04-22T09:12:40;98681.53;;;15.01;29.87
44148;BME280;29810;55.848;37.368;2023-04-22T09:15:43;98706.69;;;14.76;30.01
44148;BME280;29810;55.848;37.368;2023-04-22T09:18:45;98691.13;;;14.30;30.02
44148;BME280;29810;55.848;37.368;2023-04-22T09:21:46;98681.84;;;14.24;30.09
44148;BME280;29810;55.848;37.368;2023-04-22T09:24:48;98685.59;;;14.63;29.90
44148;BME280;29810;55.848;37.368;2023-04-22T09:27:57;98672.22;;;14.53;30.39
44148;BME280;29810;55.848;37.368;2023-04-22T09:30:59;98674.63;;;14.85;30.40
44148;BME280;29810;55.848;37.368;2023-04-22T09:34:00;98672.44;;;14.92;30.73
44148;BME280;29810;55.848;37.368;2023-04-22T09:37:02;98683.63;;;14.38;31.70
44148;BME280;29810;55.848;37.368;2023-04-22T09:40:03;98704.56;;;13.95;32.80
44148;BME280;29810;55.848;37.368;2023-04-22T09:43:06;98698.19;;;13.84;33.11
44148;BME280;29810;55.848;37.368;2023-04-22T09:46:08;98684.34;;;13.97;32.95
44148;BME280;29810;55.848;37.368;2023-04-22T09:49:10;98678.88;;;14.30;32.74
44148;BME280;29810;55.848;37.368;2023-04-22T09:52:24;98666.84;;;14.84;31.85
44148;BME280;29810;55.848;37.368;2023-04-22T09:55:28;98661.97;;;15.19;30.92
44148;BME280;29810;55.848;37.368;2023-04-22T09:58:30;98675.53;;;15.53;30.23
44148;BME280;29810;55.848;37.368;2023-04-22T10:01:35;98656.66;;;15.74;29.52
44148;BME280;29810;55.848;37.368;2023-04-22T10:04:37;98660.28;;;15.59;28.92
44148;BME280;29810;55.848;37.368;2023-04-22T10:07:38;98661.56;;;15.53;29.24
44148;BME280;29810;55.848;37.368;2023-04-22T10:10:40;98668.69;;;15.23;29.92
44148;BME280;29810;55.848;37.368;2023-04-22T10:13:41;98674.09;;;15.07;29.43
44148;BME280;29810;55.848;37.368;2023-04-22T10:16:44;98671.06;;;14.86;29.92
44148;BME280;29810;55.848;37.368;2023-04-22T10:19:46;98673.38;;;14.91;29.47
44148;BME280;29810;55.848;37.368;2023-04-22T10:22:48;98666.34;;;15.06;29.33
44148;BME280;29810;55.848;37.368;2023-04-22T10:25:52;98647.84;;;15.35;28.88
44148;BME280;29810;55.848;37.368;2023-04-22T10:28:56;98658.34;;;15.75;28.33
44148;BME280;29810;55.848;37.368;2023-04-22T10:35:11;98667.47;;;15.29;27.66
44148;BME280;29810;55.848;37.368;2023-04-22T10:38:14;98662.00;;;15.05;28.06
44148;BME280;29810;55.848;37.368;2023-04-22T10:41:17;98657.41;;;14.52;28.85
44148;BME280;29810;55.848;37.368;2023-04-22T10:44:22;98662.63;;;14.81;28.39
44148;BME280;29810;55.848;37.368;2023-04-22T10:47:28;98657.59;;;15.33;27.74
44148;BME280;29810;55.848;37.368;2023-04-22T10:50:30;98659.00;;;15.38;27.44
44148;BME280;29810;55.848;37.368;2023-04-22T10:53:35;98644.03;;;15.66;27.55
44148;BME280;29810;55.848;37.368;2023-04-22T10:56:58;98646.81;;;15.91;28.31
44148;BME280;29810;55.848;37.368;2023-04-22T10:59:57;98664.81;;;15.69;28.66
44148;BME280;29810;55.848;37.368;2023-04-22T11:03:10;98667.72;;;15.39;29.28
44148;BME280;29810;55.848;37.368;2023-04-22T11:06:15;98657.97;;;14.72;30.19
44148;BME280;29810;55.848;37.368;2023-04-22T11:09:17;98664.91;;;14.44;30.82
44148;BME280;29810;55.848;37.368;2023-04-22T11:15:35;98657.75;;;14.61;30.48
44148;BME280;29810;55.848;37.368;2023-04-22T11:18:37;98662.28;;;14.58;30.29
44148;BME280;29810;55.848;37.368;2023-04-22T11:21:40;98654.28;;;14.89;29.84
44148;BME280;29810;55.848;37.368;2023-04-22T11:24:52;98644.81;;;15.41;28.86
44148;BME280;29810;55.848;37.368;2023-04-22T11:27:53;98638.91;;;15.78;28.25
44148;BME280;29810;55.848;37.368;2023-04-22T11:31:04;98643.44;;;15.88;27.36
44148;BME280;29810;55.848;37.368;2023-04-22T11:34:07;98640.34;;;15.69;27.51
44148;BME280;29810;55.848;37.368;2023-04-22T11:37:09;98655.97;;;15.57;28.37
44148;BME280;29810;55.848;37.368;2023-04-22T11:40:11;98648.53;;;15.51;29.12
44148;BME280;29810;55.848;37.368;2023-04-22T11:43:13;98660.25;;;14.64;30.86
44148;BME280;29810;55.848;37.368;2023-04-22T11:46:14;98661.41;;;14.58;30.98
44148;BME280;29810;55.848;37.368;2023-04-22T11:49:16;98651.13;;;14.55;31.18
44148;BME280;29810;55.848;37.368;2023-04-22T11:52:17;98648.41;;;14.71;30.76
44148;BME280;29810;55.848;37.368;2023-04-22T11:55:19;98658.53;;;14.63;30.98
44148;BME280;29810;55.848;37.368;2023-04-22T11:58:24;98648.03;;;14.63;30.91
44148;BME280;29810;55.848;37.368;2023-04-22T12:01:28;98636.34;;;14.68;30.42
44148;BME280;29810;55.848;37.368;2023-04-22T12:04:34;98640.84;;;15.08;30.09
44148;BME280;29810;55.848;37.368;2023-04-22T12:07:35;98636.34;;;15.50;29.23
44148;BME280;29810;55.848;37.368;2023-04-22T12:10:44;98633.69;;;15.91;28.47
44148;BME280;29810;55.848;37.368;2023-04-22T12:13:45;98629.37;;;15.89;27.86
44148;BME280;29810;55.848;37.368;2023-04-22T12:16:47;98634.53;;;16.04;27.87
44148;BME280;29810;55.848;37.368;2023-04-22T12:19:53;98636.09;;;16.06;27.57
44148;BME280;29810;55.848;37.368;2023-04-22T12:22:56;98616.75;;;16.08;27.62
44148;BME280;29810;55.848;37.368;2023-04-22T12:25:57;98619.91;;;16.00;27.75
44148;BME280;29810;55.848;37.368;2023-04-22T12:28:59;98623.22;;;15.63;28.77
44148;BME280;29810;55.848;37.368;2023-04-22T12:32:00;98648.28;;;15.42;29.34
44148;BME280;29810;55.848;37.368;2023-04-22T12:35:02;98636.09;;;15.13;29.74
44148;BME280;29810;55.848;37.368;2023-04-22T12:38:03;98628.44;;;14.83;30.12
44148;BME280;29810;55.848;37.368;2023-04-22T12:41:05;98627.72;;;15.08;29.89
44148;BME280;29810;55.848;37.368;2023-04-22T12:44:06;98614.22;;;15.27;29.71
44148;BME280;29810;55.848;37.368;2023-04-22T12:47:11;98609.72;;;15.55;29.36
44148;BME280;29810;55.848;37.368;2023-04-22T12:50:12;98609.75;;;15.68;28.65
44148;BME280;29810;55.848;37.368;2023-04-22T12:53:13;98604.38;;;15.44;28.92
44148;BME280;29810;55.848;37.368;2023-04-22T12:56:15;98607.88;;;15.70;28.69
44148;BME280;29810;55.848;37.368;2023-04-22T12:59:16;98607.13;;;15.68;28.67
44148;BME280;29810;55.848;37.368;2023-04-22T13:02:17;98615.09;;;15.13;29.22
44148;BME280;29810;55.848;37.368;2023-04-22T13:05:19;98617.75;;;14.86;29.74
44148;BME280;29810;55.848;37.368;2023-04-22T13:08:20;98631.34;;;14.78;29.60
44148;BME280;29810;55.848;37.368;2023-04-22T13:11:21;98613.00;;;15.18;28.73
44148;BME280;29810;55.848;37.368;2023-04-22T13:14:24;98621.09;;;15.15;28.40
44148;BME280;29810;55.848;37.368;2023-04-22T13:17:25;98621.84;;;15.17;28.17
44148;BME280;29810;55.848;37.368;2023-04-22T13:20:27;98616.88;;;15.40;27.67
44148;BME280;29810;55.848;37.368;2023-04-22T13:23:28;98620.13;;;15.44;28.17
44148;BME280;29810;55.848;37.368;2023-04-22T13:26:29;98621.28;;;15.39;29.04
44148;BME280;29810;55.848;37.368;2023-04-22T13:29:31;98638.97;;;14.96;29.85
44148;BME280;29810;55.848;37.368;2023-04-22T13:32:32;98627.31;;;14.72;30.08
44148;BME280;29810;55.848;37.368;2023-04-22T13:35:34;98637.19;;;14.69;30.15
44148;BME280;29810;55.848;37.368;2023-04-22T13:38:36;98625.97;;;14.94;29.77
44148;BME280;29810;55.848;37.368;2023-04-22T13:41:37;98621.94;;;15.16;29.57
44148;BME280;29810;55.848;37.368;2023-04-22T13:44:38;98622.41;;;15.35;29.34
44148;BME280;29810;55.848;37.368;2023-04-22T13:47:40;98639.25;;;15.46;29.12
44148;BME280;29810;55.848;37.368;2023-04-22T13:50:41;98617.00;;;15.51;28.83
44148;BME280;29810;55.848;37.368;2023-04-22T13:53:43;98627.34;;;15.27;29.28
44148;BME280;29810;55.848;37.368;2023-04-22T13:56:44;98628.59;;;15.21;29.43
44148;BME280;29810;55.848;37.368;2023-04-22T13:59:47;98628.87;;;15.17;29.42
44148;BME280;29810;55.848;37.368;2023-04-22T14:02:48;98624.16;;;14.95;29.35
44148;BME280;29810;55.848;37.368;2023-04-22T14:05:50;98611.25;;;14.92;29.64
44148;BME280;29810;55.848;37.368;2023-04-22T14:08:52;98623.38;;;14.80;29.79
44148;BME280;29810;55.848;37.368;2023-04-22T14:11:54;98621.97;;;14.74;29.93
44148;BME280;29810;55.848;37.368;2023-04-22T14:14:55;98619.41;;;14.87;29.96
44148;BME280;29810;55.848;37.368;2023-04-22T14:17:56;98637.47;;;15.06;29.77
44148;BME280;29810;55.848;37.368;2023-04-22T14:20:57;98626.41;;;15.01;29.82
44148;BME280;29810;55.848;37.368;2023-04-22T14:23:59;98635.22;;;15.00;29.87
44148;BME280;29810;55.848;37.368;2023-04-22T14:27:00;98629.25;;;14.98;29.92
44148;BME280;29810;55.848;37.368;2023-04-22T14:30:02;98625.38;;;15.03;29.91
44148;BME280;29810;55.848;37.368;2023-04-22T14:33:04;98622.25;;;15.11;29.41
44148;BME280;29810;55.848;37.368;2023-04-22T14:36:07;98629.53;;;14.93;29.78
44148;BME280;29810;55.848;37.368;2023-04-22T14:39:08;98630.13;;;15.11;29.58
44148;BME280;29810;55.848;37.368;2023-04-22T14:42:09;98633.59;;;15.12;29.36
44148;BME280;29810;55.848;37.368;2023-04-22T14:45:11;98640.84;;;15.21;29.35
44148;BME280;29810;55.848;37.368;2023-04-22T14:48:14;98633.84;;;15.21;29.47
44148;BME280;29810;55.848;37.368;2023-04-22T14:51:15;98633.81;;;15.49;29.37
44148;BME280;29810;55.848;37.368;2023-04-22T14:54:17;98637.09;;;15.78;28.99
44148;BME280;29810;55.848;37.368;2023-04-22T14:57:18;98630.81;;;15.81;29.03
44148;BME280;29810;55.848;37.368;2023-04-22T15:00:19;98644.50;;;15.86;28.92
44148;BME280;29810;55.848;37.368;2023-04-22T15:03:21;98634.97;;;15.57;29.35
44148;BME280;29810;55.848;37.368;2023-04-22T15:06:22;98643.34;;;15.50;29.56
44148;BME280;29810;55.848;37.368;2023-04-22T15:09:23;98638.97;;;15.50;29.53
44148;BME280;29810;55.848;37.368;2023-04-22T15:12:25;98639.97;;;15.35;29.54
44148;BME280;29810;55.848;37.368;2023-04-22T15:15:26;98638.16;;;15.35;29.62
44148;BME280;29810;55.848;37.368;2023-04-22T15:18:28;98654.41;;;15.42;29.59
44148;BME280;29810;55.848;37.368;2023-04-22T15:21:29;98653.63;;;15.40;29.45
44148;BME280;29810;55.848;37.368;2023-04-22T15:24:30;98657.81;;;15.30;29.74
44148;BME280;29810;55.848;37.368;2023-04-22T15:27:31;98658.19;;;15.23;29.85
44148;BME280;29810;55.848;37.368;2023-04-22T15:30:33;98658.19;;;15.23;29.95
44148;BME280;29810;55.848;37.368;2023-04-22T15:33:34;98665.28;;;15.09;29.93
44148;BME280;29810;55.848;37.368;2023-04-22T15:36:35;98672.56;;;14.90;30.15
44148;BME280;29810;55.848;37.368;2023-04-22T15:39:36;98664.06;;;14.72;30.58
44148;BME280;29810;55.848;37.368;2023-04-22T15:42:38;98669.19;;;14.74;30.60
44148;BME280;29810;55.848;37.368;2023-04-22T15:45:39;98665.66;;;14.75;30.48
44148;BME280;29810;55.848;37.368;2023-04-22T15:48:40;98666.22;;;14.66;30.68
44148;BME280;29810;55.848;37.368;2023-04-22T15:51:45;98661.84;;;14.66;30.76
44148;BME280;29810;55.848;37.368;2023-04-22T15:54:46;98666.50;;;14.61;30.89
44148;BME280;29810;55.848;37.368;2023-04-22T15:57:48;98658.91;;;14.56;31.07
44148;BME280;29810;55.848;37.368;2023-04-22T16:00:49;98663.03;;;14.46;31.34